Time,TemperatureF,DewpointF,PressureIn,WindDirection,WindDirectionDegrees,WindSpeedMPH,WindSpeedGustMPH,Humidity,HourlyPrecipIn,Conditions,Clouds,dailyrainin,SolarRadiationWatts/m^2,SoftwareType,DateUTC
2013-03-11 00:08:00,36.3,18.0,30.12,NW,311,1.0,-999.0,47,-99.99,,,0.00,0,weatherlink.com 1.10,2013-03-11 06:08:00,
2013-03-11 00:23:00,36.0,18.0,30.12,NW,321,4.0,-999.0,48,-99.99,,,0.00,0,weatherlink.com 1.10,2013-03-11 06:23:00,
2013-03-11 00:38:00,35.9,18.0,30.13,NW,307,4.0,-999.0,49,-99.99,,,0.00,0,weatherlink.com 1.10,2013-03-11 06:38:00,
2013-03-11 00:53:00,36.2,19.0,30.13,NW,310,0.0,-999.0,49,-99.99,,,0.00,0,weatherlink.com 1.10,2013-03-11 06:53:00,
2013-03-11 01:09:00,36.4,19.0,30.14,WNW,295,0.0,-999.0,49,-99.99,,,0.00,0,weatherlink.com 1.10,2013-03-11 07:09:00,
2013-03-11 01:24:00,36.2,19.0,30.15,WNW,292,0.0,-999.0,50,-99.99,,,0.00,0,weatherlink.com 1.10,2013-03-11 07:24:00,
2013-03-11 01:39:00,36.0,19.0,30.15,West,276,0.0,-999.0,51,-99.99,,,0.00,0,weatherlink.com 1.10,2013-03-11 07:39:00,
2013-03-11 01:54:00,35.5,19.0,30.15,WNW,302,0.0,-999.0,51,-99.99,,,0.00,0,weatherlink.com 1.10,2013-03-11 07:54:00,
2013-03-11 02:09:00,35.1,19.0,30.14,NW,309,0.0,-999.0,52,-99.99,,,0.00,0,weatherlink.com 1.10,2013-03-11 08:09:00,
2013-03-11 02:24:00,35.0,19.0,30.15,NW,307,0.0,-999.0,53,-99.99,,,0.00,0,weatherlink.com 1.10,2013-03-11 08:24:00,
2013-03-11 02:39:00,35.5,19.0,30.14,NW,309,0.0,-999.0,52,-99.99,,,0.00,0,weatherlink.com 1.10,2013-03-11 08:39:00,
2013-03-11 02:54:00,35.6,19.0,30.13,NW,308,1.0,-999.0,52,-99.99,,,0.00,0,weatherlink.com 1.10,2013-03-11 08:54:00,
2013-03-11 03:09:00,35.3,19.0,30.13,NW,305,0.0,-999.0,52,-99.99,,,0.00,0,weatherlink.com 1.10,2013-03-11 09:09:00,
2013-03-11 03:24:00,34.2,19.0,30.13,WNW,287,0.0,-999.0,54,-99.99,,,0.00,0,weatherlink.com 1.10,2013-03-11 09:24:00,
2013-03-11 03:39:00,33.9,19.0,30.12,West,281,0.0,-999.0,55,-99.99,,,0.00,0,weatherlink.com 1.10,2013-03-11 09:39:00,
2013-03-11 03:54:00,33.3,19.0,30.12,West,281,0.0,-999.0,55,-99.99,,,0.00,0,weatherlink.com 1.10,2013-03-11 09:54:00,
2013-03-11 04:09:00,32.5,19.0,30.11,WNW,284,0.0,-999.0,57,-99.99,,,0.00,0,weatherlink.com 1.10,2013-03-11 10:09:00,
2013-03-11 04:24:00,31.8,18.0,30.11,WNW,285,0.0,-999.0,58,-99.99,,,0.00,0,weatherlink.com 1.10,2013-03-11 10:24:00,
2013-03-11 04:39:00,31.8,18.0,30.11,WNW,290,0.0,-999.0,58,-99.99,,,0.00,0,weatherlink.com 1.10,2013-03-11 10:39:00,
2013-03-11 04:54:00,31.7,18.0,30.10,NW,305,0.0,-999.0,58,-99.99,,,0.00,0,weatherlink.com 1.10,2013-03-11 10:54:00,
2013-03-11 05:09:00,31.9,18.0,30.10,WNW,290,0.0,-999.0,58,-99.99,,,0.00,0,weatherlink.com 1.10,2013-03-11 11:09:00,
2013-03-11 05:24:00,31.9,18.0,30.10,WNW,294,0.0,-999.0,58,-99.99,,,0.00,0,weatherlink.com 1.10,2013-03-11 11:24:00,
2013-03-11 05:39:00,32.1,19.0,30.09,NNW,336,2.0,-999.0,58,-99.99,,,0.00,0,weatherlink.com 1.10,2013-03-11 11:39:00,
2013-03-11 05:54:00,33.8,19.0,30.10,NW,319,0.0,-999.0,54,-99.99,,,0.00,0,weatherlink.com 1.10,2013-03-11 11:54:00,
2013-03-11 06:09:00,33.4,18.0,30.10,NW,313,0.0,-999.0,54,-99.99,,,0.00,0,weatherlink.com 1.10,2013-03-11 12:09:00,
2013-03-11 06:25:00,32.6,18.0,30.10,West,277,0.0,-999.0,55,-99.99,,,0.00,0,weatherlink.com 1.10,2013-03-11 12:25:00,
2013-03-11 06:39:00,32.1,18.0,30.10,NW,304,2.0,-999.0,56,-99.99,,,0.00,0,weatherlink.com 1.10,2013-03-11 12:39:00,
2013-03-11 06:54:00,32.0,18.0,30.09,WNW,286,1.0,-999.0,56,-99.99,,,0.00,0,weatherlink.com 1.10,2013-03-11 12:54:00,
2013-03-11 07:10:00,32.0,18.0,30.09,West,275,4.0,-999.0,56,-99.99,,,0.00,0,weatherlink.com 1.10,2013-03-11 13:10:00,
2013-03-11 07:25:00,32.1,18.0,30.09,WNW,302,3.0,-999.0,56,-99.99,,,0.00,0,weatherlink.com 1.10,2013-03-11 13:25:00,
2013-03-11 07:40:00,32.1,18.0,30.10,WNW,283,0.0,-999.0,56,-99.99,,,0.00,14,weatherlink.com 1.10,2013-03-11 13:40:00,
2013-03-11 07:55:00,33.6,18.0,30.10,West,273,0.0,-999.0,53,-99.99,,,0.00,23,weatherlink.com 1.10,2013-03-11 13:55:00,
2013-03-11 08:10:00,35.2,19.0,30.10,SW,234,0.0,-999.0,51,-99.99,,,0.00,35,weatherlink.com 1.10,2013-03-11 14:10:00,
2013-03-11 08:25:00,36.0,19.0,30.11,SW,232,0.0,-999.0,50,-99.99,,,0.00,44,weatherlink.com 1.10,2013-03-11 14:25:00,
2013-03-11 08:40:00,36.6,19.0,30.11,WNW,298,0.0,-999.0,50,-99.99,,,0.00,49,weatherlink.com 1.10,2013-03-11 14:40:00,
2013-03-11 08:55:00,38.0,20.0,30.11,NW,316,3.0,-999.0,48,-99.99,,,0.00,100,weatherlink.com 1.10,2013-03-11 14:55:00,
2013-03-11 09:10:00,39.7,20.0,30.11,NW,325,2.0,-999.0,45,-99.99,,,0.00,338,weatherlink.com 1.10,2013-03-11 15:10:00,
2013-03-11 09:25:00,42.0,20.0,30.12,NW,314,1.0,-999.0,41,-99.99,,,0.00,390,weatherlink.com 1.10,2013-03-11 15:25:00,
2013-03-11 09:40:00,44.4,20.0,30.12,NNW,331,11.0,-999.0,38,-99.99,,,0.00,443,weatherlink.com 1.10,2013-03-11 15:40:00,
2013-03-11 09:55:00,45.3,20.0,30.12,NW,306,2.0,-999.0,36,-99.99,,,0.00,490,weatherlink.com 1.10,2013-03-11 15:55:00,
2013-03-11 10:10:00,46.5,20.0,30.11,NW,311,5.0,-999.0,35,-99.99,,,0.00,538,weatherlink.com 1.10,2013-03-11 16:10:00,
2013-03-11 10:25:00,49.9,20.0,30.10,NW,315,8.0,-999.0,31,-99.99,,,0.00,582,weatherlink.com 1.10,2013-03-11 16:25:00,
2013-03-11 10:40:00,51.9,20.0,30.10,NW,313,7.0,-999.0,29,-99.99,,,0.00,622,weatherlink.com 1.10,2013-03-11 16:40:00,
2013-03-11 10:56:00,52.9,20.0,30.09,NW,313,5.0,-999.0,27,-99.99,,,0.00,661,weatherlink.com 1.10,2013-03-11 16:56:00,
2013-03-11 11:12:00,50.6,18.0,30.08,NW,309,6.0,-999.0,28,-99.99,,,0.00,698,weatherlink.com 1.10,2013-03-11 17:12:00,
2013-03-11 11:27:00,51.6,18.0,30.08,WNW,289,9.0,-999.0,27,-99.99,,,0.00,728,weatherlink.com 1.10,2013-03-11 17:27:00,
2013-03-11 11:42:00,50.6,18.0,30.07,NW,307,4.0,-999.0,28,-99.99,,,0.00,758,weatherlink.com 1.10,2013-03-11 17:42:00,
2013-03-11 11:56:00,52.3,20.0,30.06,NNE,22,2.0,-999.0,28,-99.99,,,0.00,784,weatherlink.com 1.10,2013-03-11 17:56:00,
2013-03-11 12:12:00,54.8,21.0,30.06,WNW,297,7.0,-999.0,27,-99.99,,,0.00,803,weatherlink.com 1.10,2013-03-11 18:12:00,
2013-03-11 12:26:00,57.5,21.0,30.05,NNW,331,7.0,-999.0,24,-99.99,,,0.00,819,weatherlink.com 1.10,2013-03-11 18:26:00,
2013-03-11 12:42:00,55.9,21.0,30.04,NW,306,6.0,-999.0,26,-99.99,,,0.00,823,weatherlink.com 1.10,2013-03-11 18:42:00,
2013-03-11 12:57:00,57.9,22.0,30.04,NW,315,5.0,-999.0,25,-99.99,,,0.00,842,weatherlink.com 1.10,2013-03-11 18:57:00,
2013-03-11 13:12:00,56.4,22.0,30.02,WNW,297,2.0,-999.0,26,-99.99,,,0.00,838,weatherlink.com 1.10,2013-03-11 19:12:00,
2013-03-11 13:27:00,59.3,22.0,30.01,North,350,7.0,-999.0,24,-99.99,,,0.00,837,weatherlink.com 1.10,2013-03-11 19:27:00,
2013-03-11 13:43:00,61.3,21.0,29.99,NW,313,5.0,-999.0,21,-99.99,,,0.00,828,weatherlink.com 1.10,2013-03-11 19:43:00,
2013-03-11 13:57:00,58.3,20.0,29.98,NW,317,3.0,-999.0,23,-99.99,,,0.00,821,weatherlink.com 1.10,2013-03-11 19:57:00,
2013-03-11 14:13:00,61.4,20.0,29.97,NW,325,3.0,-999.0,20,-99.99,,,0.00,810,weatherlink.com 1.10,2013-03-11 20:13:00,
2013-03-11 14:28:00,59.4,19.0,29.96,NW,311,3.0,-999.0,21,-99.99,,,0.00,737,weatherlink.com 1.10,2013-03-11 20:28:00,
2013-03-11 14:43:00,62.8,20.0,29.95,NW,308,4.0,-999.0,19,-99.99,,,0.00,710,weatherlink.com 1.10,2013-03-11 20:43:00,
2013-03-11 14:58:00,62.0,18.0,29.95,WNW,289,0.0,-999.0,18,-99.99,,,0.00,638,weatherlink.com 1.10,2013-03-11 20:58:00,
2013-03-11 15:13:00,60.1,17.0,29.94,NW,311,0.0,-999.0,19,-99.99,,,0.00,724,weatherlink.com 1.10,2013-03-11 21:13:00,
2013-03-11 15:28:00,62.1,18.0,29.93,WNW,292,0.0,-999.0,18,-99.99,,,0.00,35,weatherlink.com 1.10,2013-03-11 21:28:00,
2013-03-11 15:43:00,61.8,15.0,29.93,WNW,303,9.0,-999.0,16,-99.99,,,0.00,33,weatherlink.com 1.10,2013-03-11 21:43:00,
2013-03-11 15:58:00,62.4,15.0,29.93,NNW,335,7.0,-999.0,16,-99.99,,,0.00,30,weatherlink.com 1.10,2013-03-11 21:58:00,
2013-03-11 16:13:00,61.8,15.0,29.92,NW,313,5.0,-999.0,16,-99.99,,,0.00,28,weatherlink.com 1.10,2013-03-11 22:13:00,
2013-03-11 16:28:00,60.9,14.0,29.91,NW,313,2.0,-999.0,16,-99.99,,,0.00,26,weatherlink.com 1.10,2013-03-11 22:28:00,
2013-03-11 16:43:00,61.8,13.0,29.91,WSW,242,1.0,-999.0,15,-99.99,,,0.00,25,weatherlink.com 1.10,2013-03-11 22:43:00,
2013-03-11 16:58:00,62.8,13.0,29.90,NW,310,6.0,-999.0,14,-99.99,,,0.00,23,weatherlink.com 1.10,2013-03-11 22:58:00,
2013-03-11 17:13:00,61.3,11.0,29.90,WNW,290,1.0,-999.0,14,-99.99,,,0.00,23,weatherlink.com 1.10,2013-03-11 23:13:00,
2013-03-11 17:28:00,61.0,13.0,29.89,NW,319,7.0,-999.0,15,-99.99,,,0.00,21,weatherlink.com 1.10,2013-03-11 23:28:00,
2013-03-11 17:43:00,60.9,11.0,29.89,WNW,293,4.0,-999.0,14,-99.99,,,0.00,19,weatherlink.com 1.10,2013-03-11 23:43:00,
2013-03-11 17:58:00,60.2,11.0,29.89,WNW,294,2.0,-999.0,14,-99.99,,,0.00,18,weatherlink.com 1.10,2013-03-11 23:58:00,
2013-03-11 18:13:00,59.6,12.0,29.89,NW,312,2.0,-999.0,15,-99.99,,,0.00,16,weatherlink.com 1.10,2013-03-12 00:13:00,
2013-03-11 18:28:00,58.6,11.0,29.89,NW,309,5.0,-999.0,15,-99.99,,,0.00,12,weatherlink.com 1.10,2013-03-12 00:28:00,
2013-03-11 18:44:00,57.7,12.0,29.90,NW,306,2.0,-999.0,16,-99.99,,,0.00,7,weatherlink.com 1.10,2013-03-12 00:44:00,
2013-03-11 18:59:00,56.7,12.0,29.90,WNW,296,0.0,-999.0,17,-99.99,,,0.00,0,weatherlink.com 1.10,2013-03-12 00:59:00,
2013-03-11 19:13:00,55.5,12.0,29.90,NW,317,0.0,-999.0,18,-99.99,,,0.00,0,weatherlink.com 1.10,2013-03-12 01:13:00,
2013-03-11 19:28:00,54.8,12.0,29.90,NW,317,1.0,-999.0,18,-99.99,,,0.00,0,weatherlink.com 1.10,2013-03-12 01:28:00,
2013-03-11 19:43:00,53.9,14.0,29.91,NW,312,0.0,-999.0,20,-99.99,,,0.00,0,weatherlink.com 1.10,2013-03-12 01:43:00,
2013-03-11 19:58:00,53.1,14.0,29.91,NW,305,0.0,-999.0,21,-99.99,,,0.00,0,weatherlink.com 1.10,2013-03-12 01:58:00,
2013-03-11 20:13:00,52.7,15.0,29.92,WNW,303,1.0,-999.0,22,-99.99,,,0.00,0,weatherlink.com 1.10,2013-03-12 02:13:00,
2013-03-11 20:28:00,52.2,15.0,29.93,WNW,301,2.0,-999.0,23,-99.99,,,0.00,0,weatherlink.com 1.10,2013-03-12 02:28:00,
2013-03-11 20:43:00,51.2,16.0,29.93,NW,304,0.0,-999.0,25,-99.99,,,0.00,0,weatherlink.com 1.10,2013-03-12 02:43:00,
2013-03-11 20:58:00,50.2,16.0,29.94,WNW,301,0.0,-999.0,26,-99.99,,,0.00,0,weatherlink.com 1.10,2013-03-12 02:58:00,
2013-03-11 21:13:00,49.2,16.0,29.94,WNW,291,0.0,-999.0,27,-99.99,,,0.00,0,weatherlink.com 1.10,2013-03-12 03:13:00,
2013-03-11 21:28:00,48.3,17.0,29.95,WNW,282,0.0,-999.0,29,-99.99,,,0.00,0,weatherlink.com 1.10,2013-03-12 03:28:00,
2013-03-11 21:43:00,47.6,18.0,29.96,NW,314,0.0,-999.0,31,-99.99,,,0.00,0,weatherlink.com 1.10,2013-03-12 03:43:00,
2013-03-11 21:58:00,47.2,19.0,29.96,NW,316,1.0,-999.0,33,-99.99,,,0.00,0,weatherlink.com 1.10,2013-03-12 03:58:00,
2013-03-11 22:13:00,46.9,20.0,29.96,NW,307,0.0,-999.0,34,-99.99,,,0.00,0,weatherlink.com 1.10,2013-03-12 04:13:00,
2013-03-11 22:28:00,47.3,20.0,29.96,NW,313,1.0,-999.0,34,-99.99,,,0.00,0,weatherlink.com 1.10,2013-03-12 04:28:00,
2013-03-11 22:43:00,47.0,20.0,29.96,NW,311,0.0,-999.0,35,-99.99,,,0.00,0,weatherlink.com 1.10,2013-03-12 04:43:00,
2013-03-11 22:58:00,46.9,20.0,29.96,NW,313,5.0,-999.0,35,-99.99,,,0.00,0,weatherlink.com 1.10,2013-03-12 04:58:00,
2013-03-11 23:13:00,46.9,20.0,29.96,NW,312,4.0,-999.0,35,-99.99,,,0.00,0,weatherlink.com 1.10,2013-03-12 05:13:00,
2013-03-11 23:28:00,46.8,21.0,29.95,NW,309,2.0,-999.0,36,-99.99,,,0.00,0,weatherlink.com 1.10,2013-03-12 05:28:00,
2013-03-11 23:44:00,46.6,21.0,29.95,North,355,7.0,-999.0,36,-99.99,,,0.00,0,weatherlink.com 1.10,2013-03-12 05:44:00,
2013-03-11 23:59:00,46.5,21.0,29.94,NW,317,6.0,-999.0,36,-99.99,,,0.00,0,weatherlink.com 1.10,2013-03-12 05:59:00,